createdAt,value
2022-07-30T00:00:44.265Z,44.77
2022-07-30T00:01:44.254Z,42.76
2022-07-30T00:02:44.287Z,36.25
2022-07-30T00:03:44.305Z,45.77
2022-07-30T00:04:45.113Z,54.89
2022-07-30T00:05:44.229Z,43.79
2022-07-30T00:06:44.218Z,42.56
2022-07-30T00:07:44.282Z,49.61
2022-07-30T00:08:44.224Z,48.34
2022-07-30T00:09:44.201Z,53.87
2022-07-30T00:10:44.193Z,53.37
2022-07-30T00:11:44.180Z,42.74
2022-07-30T00:12:44.195Z,47.65
2022-07-30T00:13:44.173Z,52.83
2022-07-30T00:14:44.161Z,41.41
2022-07-30T00:15:44.154Z,52.63
2022-07-30T00:16:44.212Z,47.04
2022-07-30T00:17:46.657Z,49.80
2022-07-30T00:18:44.129Z,46.62
2022-07-30T00:19:44.118Z,52.37
2022-07-30T00:20:44.418Z,42.40
2022-07-30T00:21:44.111Z,51.12
2022-07-30T00:22:44.121Z,45.31
2022-07-30T00:24:01.199Z,50.46
2022-07-30T00:24:45.085Z,48.92
2022-07-30T00:25:44.073Z,43.54
2022-07-30T00:26:44.062Z,46.62
2022-07-30T00:27:44.081Z,49.08
2022-07-30T00:28:44.049Z,54.57
2022-07-30T00:29:45.000Z,46.11
2022-07-30T00:30:44.070Z,42.92
2022-07-30T00:31:44.036Z,55.89
2022-07-30T00:32:44.052Z,56.60
2022-07-30T00:33:44.008Z,49.03
2022-07-30T00:34:44.001Z,53.99
2022-07-30T00:35:43.995Z,53.95
2022-07-30T00:36:43.986Z,54.75
2022-07-30T00:37:43.974Z,45.62
2022-07-30T00:38:43.996Z,39.00
2022-07-30T00:39:43.966Z,46.81
2022-07-30T00:40:43.957Z,40.63
2022-07-30T00:41:43.955Z,45.92
2022-07-30T00:42:43.958Z,55.92
2022-07-30T00:43:43.959Z,43.54
2022-07-30T00:44:44.943Z,47.38
2022-07-30T00:45:44.010Z,60.27
2022-07-30T00:46:43.928Z,56.00
2022-07-30T00:47:43.904Z,47.48
2022-07-30T00:48:43.983Z,47.16
2022-07-30T00:49:44.440Z,46.39
2022-07-30T00:50:45.281Z,39.84
2022-07-30T00:51:43.869Z,42.41
2022-07-30T00:52:43.873Z,45.82
2022-07-30T00:53:43.886Z,39.44
2022-07-30T00:54:43.852Z,48.83
2022-07-30T00:55:43.841Z,50.32
2022-07-30T00:56:43.835Z,58.55
2022-07-30T00:57:43.823Z,47.59
2022-07-30T00:58:43.845Z,43.77
2022-07-30T00:59:43.811Z,46.90
2022-07-30T01:00:43.891Z,37.82
2022-07-30T01:01:43.793Z,53.85
2022-07-30T01:02:43.829Z,52.47
2022-07-30T01:03:43.802Z,49.80
2022-07-30T01:04:43.769Z,42.82
2022-07-30T01:05:43.757Z,55.59
2022-07-30T01:06:43.753Z,56.13
2022-07-30T01:07:43.743Z,55.72
2022-07-30T01:08:43.762Z,53.11
2022-07-30T01:09:43.731Z,52.24
2022-07-30T01:10:43.726Z,60.37
2022-07-30T01:11:43.717Z,48.55
2022-07-30T01:12:43.716Z,49.36
2022-07-30T01:13:43.756Z,50.10
2022-07-30T01:14:43.703Z,59.31
2022-07-30T01:15:43.688Z,56.99
2022-07-30T01:16:43.726Z,46.77
2022-07-30T01:17:43.674Z,44.01
2022-07-30T01:18:43.729Z,48.07
2022-07-30T01:19:43.657Z,60.57
2022-07-30T01:20:43.648Z,54.08
2022-07-30T01:21:43.659Z,51.84
2022-07-30T01:22:43.634Z,52.41
2022-07-30T01:23:43.676Z,49.94
2022-07-30T01:24:43.617Z,50.47
2022-07-30T01:25:43.611Z,47.10
2022-07-30T01:26:43.616Z,43.09
2022-07-30T01:27:43.598Z,52.32
2022-07-30T01:28:43.613Z,52.91
2022-07-30T01:29:43.575Z,39.74
2022-07-30T01:30:44.569Z,48.59
2022-07-30T01:31:43.595Z,56.42
2022-07-30T01:32:43.559Z,46.41
2022-07-30T01:33:43.595Z,46.68
2022-07-30T01:34:43.547Z,37.87
2022-07-30T01:35:43.540Z,48.26
2022-07-30T01:36:43.516Z,51.61
2022-07-30T01:37:44.534Z,54.62
2022-07-30T01:38:43.542Z,46.41
2022-07-30T01:39:43.558Z,40.48
2022-07-30T01:40:43.505Z,44.20
2022-07-30T01:41:43.490Z,48.46
2022-07-30T01:42:43.483Z,36.25
2022-07-30T01:43:43.507Z,39.39
2022-07-30T01:44:43.467Z,46.09
2022-07-30T01:45:44.411Z,52.80
2022-07-30T01:46:43.456Z,54.88
2022-07-30T01:47:43.441Z,51.70
2022-07-30T01:48:43.519Z,60.07
2022-07-30T01:49:43.428Z,46.20
2022-07-30T01:50:43.422Z,52.74
2022-07-30T01:51:43.413Z,41.37
2022-07-30T01:52:43.414Z,43.98
2022-07-30T01:53:43.421Z,44.92
2022-07-30T01:54:43.387Z,38.38
2022-07-30T01:55:43.387Z,41.15
2022-07-30T01:56:43.376Z,35.98
2022-07-30T01:57:43.367Z,46.43
2022-07-30T01:58:43.382Z,44.64
2022-07-30T01:59:43.347Z,50.82
2022-07-30T02:00:43.407Z,50.57
2022-07-30T02:01:43.336Z,45.20
2022-07-30T02:02:43.349Z,40.77
2022-07-30T02:03:43.362Z,37.03
2022-07-30T02:04:43.322Z,50.60
2022-07-30T02:05:43.322Z,45.86
2022-07-30T02:06:43.291Z,38.14
2022-07-30T02:07:43.274Z,47.72
2022-07-30T02:08:44.302Z,44.64
2022-07-30T02:09:47.174Z,37.85
2022-07-30T02:10:44.268Z,47.52
2022-07-30T02:11:43.263Z,39.78
2022-07-30T02:12:43.259Z,50.90
2022-07-30T02:13:43.265Z,41.66
2022-07-30T02:14:43.285Z,44.60
2022-07-30T02:15:43.249Z,49.93
2022-07-30T02:16:43.295Z,44.28
2022-07-30T02:17:45.223Z,44.60
2022-07-30T02:18:43.245Z,38.97
2022-07-30T02:19:43.193Z,47.61
2022-07-30T02:20:43.187Z,44.71
2022-07-30T02:21:50.691Z,37.24
2022-07-30T02:22:44.166Z,41.79
2022-07-30T02:23:43.191Z,41.92
2022-07-30T02:24:43.152Z,48.37
2022-07-30T02:25:44.154Z,49.96
2022-07-30T02:26:43.155Z,54.48
2022-07-30T02:27:43.134Z,43.77
2022-07-30T02:28:43.133Z,45.72
2022-07-30T02:29:43.150Z,47.40
2022-07-30T02:30:43.109Z,47.44
2022-07-30T02:31:43.145Z,40.49
2022-07-30T02:32:43.093Z,56.83
2022-07-30T02:33:44.815Z,51.85
2022-07-30T02:34:44.109Z,44.86
2022-07-30T02:35:43.074Z,45.18
2022-07-30T02:36:43.062Z,50.62
2022-07-30T02:37:44.418Z,46.43
2022-07-30T02:38:43.049Z,56.83
2022-07-30T02:39:43.068Z,51.31
2022-07-30T02:40:43.029Z,51.47
2022-07-30T02:41:45.542Z,47.25
2022-07-30T02:42:45.017Z,47.35
2022-07-30T02:43:43.031Z,45.93
2022-07-30T02:44:43.025Z,56.64
2022-07-30T02:45:42.994Z,43.54
2022-07-30T02:46:43.074Z,36.82
2022-07-30T02:47:42.989Z,54.49
2022-07-30T02:48:43.018Z,43.36
2022-07-30T02:49:42.985Z,54.05
2022-07-30T02:50:42.946Z,38.89
2022-07-30T02:51:42.938Z,37.18
2022-07-30T02:52:42.932Z,53.25
2022-07-30T02:53:42.929Z,54.80
2022-07-30T02:54:42.941Z,47.46
2022-07-30T02:55:42.914Z,39.93
2022-07-30T02:56:42.901Z,49.14
2022-07-30T02:57:43.637Z,41.83
2022-07-30T02:58:42.891Z,44.03
2022-07-30T02:59:42.942Z,56.96
2022-07-30T03:00:42.925Z,39.21
2022-07-30T03:01:42.941Z,42.85
2022-07-30T03:02:43.793Z,38.31
2022-07-30T03:03:42.848Z,48.81
2022-07-30T03:04:42.952Z,51.54
2022-07-30T03:05:42.828Z,46.28
2022-07-30T03:06:42.820Z,50.58
2022-07-30T03:07:42.809Z,44.27
2022-07-30T03:08:42.806Z,52.42
2022-07-30T03:09:50.772Z,44.81
2022-07-30T03:10:44.362Z,42.17
2022-07-30T03:11:42.781Z,40.58
2022-07-30T03:12:42.772Z,56.79
2022-07-30T03:13:42.766Z,47.40
2022-07-30T03:14:42.984Z,45.93
2022-07-30T03:15:42.748Z,49.91
2022-07-30T03:16:42.779Z,54.79
2022-07-30T03:17:42.736Z,51.55
2022-07-30T03:18:42.729Z,53.13
2022-07-30T03:19:43.001Z,48.40
2022-07-30T03:20:42.712Z,38.72
2022-07-30T03:21:43.703Z,39.92
2022-07-30T03:22:42.697Z,42.93
2022-07-30T03:23:42.687Z,44.62
2022-07-30T03:24:43.691Z,43.14
2022-07-30T03:25:42.684Z,44.92
2022-07-30T03:26:42.665Z,58.33
2022-07-30T03:27:42.662Z,48.46
2022-07-30T03:28:42.650Z,44.81
2022-07-30T03:29:42.669Z,46.30
2022-07-30T03:30:42.636Z,48.83
2022-07-30T03:31:42.681Z,44.10
2022-07-30T03:32:43.010Z,46.93
2022-07-30T03:33:42.614Z,46.91
2022-07-30T03:34:42.631Z,42.00
2022-07-30T03:35:42.598Z,51.35
2022-07-30T03:36:42.589Z,50.47
2022-07-30T03:37:42.589Z,48.78
2022-07-30T03:38:42.574Z,45.94
2022-07-30T03:39:42.589Z,49.64
2022-07-30T03:40:42.559Z,53.23
2022-07-30T03:41:42.550Z,49.54
2022-07-30T03:42:42.545Z,50.90
2022-07-30T03:43:42.534Z,46.45
2022-07-30T03:44:42.600Z,40.06
2022-07-30T03:45:42.544Z,40.63
2022-07-30T03:46:42.588Z,54.45
2022-07-30T03:47:42.503Z,41.96
2022-07-30T03:48:42.545Z,43.20
2022-07-30T03:49:42.511Z,59.48
2022-07-30T03:50:42.538Z,47.38
2022-07-30T03:51:42.488Z,47.12
2022-07-30T03:52:42.486Z,49.00
2022-07-30T03:53:42.455Z,50.57
2022-07-30T03:54:42.478Z,49.28
2022-07-30T03:55:42.439Z,48.27
2022-07-30T03:56:42.432Z,45.24
2022-07-30T03:57:42.420Z,50.35
2022-07-30T03:58:42.435Z,41.67
2022-07-30T03:59:42.459Z,44.53
2022-07-30T04:00:42.399Z,48.94
2022-07-30T04:01:42.476Z,53.21
2022-07-30T04:02:42.393Z,53.43
2022-07-30T04:03:42.428Z,51.03
2022-07-30T04:04:42.375Z,48.33
2022-07-30T04:05:42.397Z,47.37
2022-07-30T04:06:42.357Z,44.11
2022-07-30T04:07:45.192Z,45.03
2022-07-30T04:08:42.343Z,55.23
2022-07-30T04:09:42.338Z,56.08
2022-07-30T04:10:42.370Z,47.28
2022-07-30T04:11:42.334Z,54.45
2022-07-30T04:12:42.314Z,48.17
2022-07-30T04:13:42.305Z,56.19
2022-07-30T04:14:42.303Z,42.86
2022-07-30T04:16:05.715Z,53.95
2022-07-30T04:16:43.335Z,51.18
2022-07-30T04:17:42.290Z,58.95
2022-07-30T04:18:42.267Z,50.99
2022-07-30T04:19:42.259Z,52.90
2022-07-30T04:20:42.295Z,44.14
2022-07-30T04:21:42.250Z,56.73
2022-07-30T04:22:42.257Z,49.91
2022-07-30T04:24:03.614Z,53.35
2022-07-30T04:24:44.206Z,47.36
2022-07-30T04:25:43.236Z,50.78
2022-07-30T04:26:42.197Z,55.90
2022-07-30T04:28:02.778Z,51.47
2022-07-30T04:28:43.185Z,49.88
2022-07-30T04:29:42.172Z,45.19
2022-07-30T04:30:42.188Z,52.24
2022-07-30T04:31:42.276Z,53.61
2022-07-30T04:32:42.151Z,53.43
2022-07-30T04:33:42.146Z,49.45
2022-07-30T04:34:42.136Z,39.90
2022-07-30T04:35:51.455Z,48.33
2022-07-30T04:36:43.121Z,48.50
2022-07-30T04:37:42.110Z,47.59
2022-07-30T04:38:42.102Z,45.21
2022-07-30T04:39:42.085Z,57.95
2022-07-30T04:40:43.113Z,49.69
2022-07-30T04:41:48.362Z,49.48
2022-07-30T04:42:43.070Z,48.50
2022-07-30T04:43:42.073Z,56.49
2022-07-30T04:44:42.070Z,56.17
2022-07-30T04:45:42.086Z,54.87
2022-07-30T04:46:42.141Z,48.39
2022-07-30T04:47:42.031Z,43.76
2022-07-30T04:48:42.062Z,48.99
2022-07-30T04:49:43.022Z,59.79
2022-07-30T04:50:42.048Z,41.37
2022-07-30T04:51:42.060Z,48.49
2022-07-30T04:52:41.996Z,48.58
2022-07-30T04:53:41.986Z,42.78
2022-07-30T04:54:41.981Z,43.33
2022-07-30T04:55:41.995Z,52.95
2022-07-30T04:56:41.967Z,46.52
2022-07-30T04:57:42.959Z,46.87
2022-07-30T04:58:41.952Z,49.46
2022-07-30T04:59:41.944Z,53.00
2022-07-30T05:00:41.966Z,52.42
2022-07-30T05:01:42.045Z,57.84
2022-07-30T05:02:41.924Z,46.68
2022-07-30T05:03:41.920Z,47.88
2022-07-30T05:04:41.910Z,51.69
2022-07-30T05:05:42.065Z,50.40
2022-07-30T05:06:41.893Z,49.62
2022-07-30T05:07:41.883Z,41.09
2022-07-30T05:08:41.908Z,53.82
2022-07-30T05:09:42.923Z,47.40
2022-07-30T05:10:41.885Z,45.62
2022-07-30T05:11:41.847Z,57.13
2022-07-30T05:12:41.854Z,49.51
2022-07-30T05:13:41.831Z,50.06
2022-07-30T05:14:44.383Z,58.15
2022-07-30T05:15:42.921Z,55.52
2022-07-30T05:16:41.808Z,54.14
2022-07-30T05:17:41.802Z,48.74
2022-07-30T05:18:41.798Z,56.02
2022-07-30T05:19:41.783Z,47.20
2022-07-30T05:20:41.967Z,50.31
2022-07-30T05:21:41.770Z,52.72
2022-07-30T05:22:42.821Z,52.17
2022-07-30T05:23:50.135Z,49.68
2022-07-30T05:24:42.742Z,47.00
2022-07-30T05:25:41.738Z,49.92
2022-07-30T05:26:41.749Z,54.06
2022-07-30T05:27:41.721Z,48.20
2022-07-30T05:28:41.713Z,51.36
2022-07-30T05:29:41.709Z,51.97
2022-07-30T05:30:42.032Z,50.50
2022-07-30T05:31:41.712Z,58.93
2022-07-30T05:32:41.681Z,53.55
2022-07-30T05:33:42.805Z,45.13
2022-07-30T05:34:41.669Z,61.89
2022-07-30T05:35:41.657Z,51.22
2022-07-30T05:36:41.673Z,52.69
2022-07-30T05:37:41.647Z,48.88
2022-07-30T05:38:41.643Z,54.44
2022-07-30T05:40:02.938Z,50.05
2022-07-30T05:40:42.616Z,55.79
2022-07-30T05:41:41.634Z,47.28
2022-07-30T05:42:41.599Z,51.55
2022-07-30T05:43:41.591Z,51.98
2022-07-30T05:44:41.586Z,50.25
2022-07-30T05:45:41.573Z,54.61
2022-07-30T05:46:41.709Z,46.47
2022-07-30T05:47:41.558Z,57.40
2022-07-30T05:48:41.613Z,53.39
2022-07-30T05:49:41.546Z,50.38
2022-07-30T05:50:41.536Z,50.60
2022-07-30T05:51:41.552Z,44.28
2022-07-30T05:52:41.519Z,49.27
2022-07-30T05:53:41.516Z,50.08
2022-07-30T05:54:41.510Z,48.90
2022-07-30T05:55:41.498Z,56.02
2022-07-30T05:56:41.510Z,59.71
2022-07-30T05:57:41.485Z,52.23
2022-07-30T05:58:41.474Z,56.39
2022-07-30T05:59:41.470Z,50.06
2022-07-30T06:00:41.487Z,49.68
2022-07-30T06:01:41.554Z,57.01
2022-07-30T06:02:41.445Z,50.75
2022-07-30T06:03:41.446Z,51.98
2022-07-30T06:04:46.152Z,53.34
2022-07-30T06:05:42.447Z,55.65
2022-07-30T06:06:41.447Z,52.99
2022-07-30T06:07:41.421Z,54.87
2022-07-30T06:08:41.397Z,53.68
2022-07-30T06:09:41.391Z,54.53
2022-07-30T06:10:41.384Z,61.88
2022-07-30T06:11:41.410Z,52.12
2022-07-30T06:12:41.366Z,53.66
2022-07-30T06:13:41.359Z,52.57
2022-07-30T06:14:41.353Z,56.68
2022-07-30T06:15:41.374Z,57.18
2022-07-30T06:16:41.360Z,47.99
2022-07-30T06:17:42.074Z,55.40
2022-07-30T06:18:41.323Z,55.00
2022-07-30T06:19:41.329Z,51.41
2022-07-30T06:20:41.313Z,51.73
2022-07-30T06:22:01.594Z,56.68
2022-07-30T06:22:42.329Z,58.07
2022-07-30T06:23:41.278Z,55.23
2022-07-30T06:24:41.278Z,51.09
2022-07-30T06:25:41.265Z,55.03
2022-07-30T06:26:41.258Z,55.79
2022-07-30T06:27:41.272Z,52.38
2022-07-30T06:28:41.238Z,57.95
2022-07-30T06:29:41.235Z,45.23
2022-07-30T06:30:41.268Z,48.82
2022-07-30T06:31:41.217Z,54.55
2022-07-30T06:32:41.233Z,50.02
2022-07-30T06:33:41.201Z,59.81
2022-07-30T06:34:41.196Z,58.53
2022-07-30T06:35:41.192Z,57.25
2022-07-30T06:36:41.181Z,48.52
2022-07-30T06:38:05.991Z,55.92
2022-07-30T06:38:42.163Z,61.44
2022-07-30T06:39:57.728Z,55.73
2022-07-30T06:40:42.156Z,60.94
2022-07-30T06:41:41.152Z,52.26
2022-07-30T06:42:41.156Z,60.10
2022-07-30T06:43:41.125Z,57.91
2022-07-30T06:44:41.115Z,55.25
2022-07-30T06:45:42.109Z,56.57
2022-07-30T06:46:41.152Z,56.44
2022-07-30T06:47:41.128Z,54.89
2022-07-30T06:48:41.117Z,55.59
2022-07-30T06:49:41.088Z,54.94
2022-07-30T06:50:41.071Z,56.39
2022-07-30T06:51:41.059Z,54.44
2022-07-30T06:52:41.082Z,57.13
2022-07-30T06:53:42.448Z,56.33
2022-07-30T06:54:41.038Z,59.25
2022-07-30T06:55:41.032Z,54.39
2022-07-30T06:56:41.020Z,60.07
2022-07-30T06:57:42.542Z,57.06
2022-07-30T06:58:41.008Z,56.21
2022-07-30T06:59:55.759Z,58.49
2022-07-30T07:00:42.005Z,60.60
2022-07-30T07:01:41.076Z,53.52
2022-07-30T07:02:41.009Z,60.19
2022-07-30T07:03:41.054Z,59.26
2022-07-30T07:04:40.979Z,55.58
2022-07-30T07:05:40.942Z,54.71
2022-07-30T07:06:40.940Z,53.84
2022-07-30T07:07:43.157Z,52.00
2022-07-30T07:08:42.962Z,50.23
2022-07-30T07:09:44.650Z,56.65
2022-07-30T07:10:40.957Z,58.23
2022-07-30T07:11:40.901Z,55.69
2022-07-30T07:12:40.896Z,57.01
2022-07-30T07:13:40.912Z,58.13
2022-07-30T07:14:40.884Z,56.47
2022-07-30T07:15:40.872Z,52.72
2022-07-30T07:16:40.961Z,59.19
2022-07-30T07:17:40.856Z,56.45
2022-07-30T07:18:40.874Z,56.35
2022-07-30T07:19:59.569Z,55.78
2022-07-30T07:20:41.835Z,48.18
2022-07-30T07:21:40.828Z,52.85
2022-07-30T07:22:40.821Z,56.25
2022-07-30T07:23:42.070Z,58.10
2022-07-30T07:24:41.806Z,57.61
2022-07-30T07:25:40.805Z,58.31
2022-07-30T07:26:40.790Z,56.66
2022-07-30T07:27:40.787Z,57.21
2022-07-30T07:28:40.806Z,55.65
2022-07-30T07:29:40.770Z,54.68
2022-07-30T07:30:41.940Z,56.44
2022-07-30T07:32:06.805Z,46.48
2022-07-30T07:32:41.743Z,56.61
2022-07-30T07:33:40.762Z,56.85
2022-07-30T07:34:40.779Z,53.71
2022-07-30T07:35:48.628Z,54.41
2022-07-30T07:36:41.714Z,56.35
2022-07-30T07:37:40.703Z,54.61
2022-07-30T07:38:41.686Z,55.30
2022-07-30T07:39:42.339Z,56.03
2022-07-30T07:40:41.682Z,57.73
2022-07-30T07:41:48.728Z,59.86
2022-07-30T07:42:41.697Z,53.22
2022-07-30T07:43:40.658Z,58.23
2022-07-30T07:44:40.652Z,61.69
2022-07-30T07:45:40.707Z,59.53
2022-07-30T07:46:40.684Z,59.66
2022-07-30T07:47:40.656Z,59.94
2022-07-30T07:48:41.638Z,63.02
2022-07-30T07:49:40.610Z,59.70
2022-07-30T07:50:40.619Z,58.98
2022-07-30T07:51:48.369Z,55.41
2022-07-30T07:52:41.624Z,58.20
2022-07-30T07:53:40.582Z,56.23
2022-07-30T07:54:40.575Z,56.46
2022-07-30T07:55:40.567Z,54.86
2022-07-30T07:56:40.559Z,56.95
2022-07-30T07:57:40.554Z,53.58
2022-07-30T07:58:40.614Z,57.46
2022-07-30T07:59:40.946Z,54.74
2022-07-30T08:00:40.525Z,53.51
2022-07-30T08:01:40.557Z,61.69
2022-07-30T08:02:40.545Z,59.53
2022-07-30T08:03:40.530Z,54.93
2022-07-30T08:04:40.505Z,54.69
2022-07-30T08:06:01.083Z,55.82
2022-07-30T08:06:41.479Z,57.22
2022-07-30T08:07:40.467Z,58.46
2022-07-30T08:08:40.495Z,55.65
2022-07-30T08:09:40.888Z,59.13
2022-07-30T08:10:40.451Z,55.00
2022-07-30T08:11:40.443Z,60.20
2022-07-30T08:12:40.431Z,57.34
2022-07-30T08:13:49.189Z,60.63
2022-07-30T08:14:41.422Z,60.11
2022-07-30T08:15:40.408Z,54.49
2022-07-30T08:16:40.425Z,58.39
2022-07-30T08:17:40.393Z,57.75
2022-07-30T08:18:40.415Z,57.01
2022-07-30T08:19:40.383Z,54.16
2022-07-30T08:20:40.376Z,59.51
2022-07-30T08:21:40.371Z,54.32
2022-07-30T08:22:40.362Z,51.24
2022-07-30T08:23:42.633Z,54.09
2022-07-30T08:24:41.345Z,54.38
2022-07-30T08:25:40.337Z,54.05
2022-07-30T08:26:40.329Z,54.18
2022-07-30T08:27:40.327Z,54.97
2022-07-30T08:28:40.340Z,56.77
2022-07-30T08:29:40.305Z,56.26
2022-07-30T08:30:40.305Z,55.59
2022-07-30T08:31:40.301Z,54.31
2022-07-30T08:32:40.315Z,56.26
2022-07-30T08:33:40.302Z,59.33
2022-07-30T08:34:40.273Z,56.18
2022-07-30T08:35:48.575Z,56.83
2022-07-30T08:36:41.250Z,54.02
2022-07-30T08:37:40.238Z,54.57
2022-07-30T08:38:41.316Z,58.45
2022-07-30T08:39:40.230Z,54.85
2022-07-30T08:40:40.224Z,57.94
2022-07-30T08:41:40.213Z,57.67
2022-07-30T08:42:40.203Z,55.29
2022-07-30T08:43:40.238Z,50.91
2022-07-30T08:44:40.196Z,56.42
2022-07-30T08:45:40.216Z,56.08
2022-07-30T08:46:40.178Z,56.83
2022-07-30T08:47:40.173Z,56.55
2022-07-30T08:48:40.220Z,55.56
2022-07-30T08:49:40.162Z,51.87
2022-07-30T08:50:40.149Z,59.13
2022-07-30T08:51:40.179Z,61.25
2022-07-30T08:52:40.135Z,53.72
2022-07-30T08:53:40.161Z,59.49
2022-07-30T08:54:40.121Z,57.47
2022-07-30T08:55:40.162Z,55.48
2022-07-30T08:56:40.103Z,56.86
2022-07-30T08:57:40.096Z,58.50
2022-07-30T08:58:40.132Z,60.10
2022-07-30T08:59:59.179Z,58.80
2022-07-30T09:00:41.075Z,54.89
2022-07-30T09:01:40.086Z,58.35
2022-07-30T09:02:40.066Z,54.03
2022-07-30T09:03:44.059Z,57.99
2022-07-30T09:04:40.046Z,55.93
2022-07-30T09:05:40.040Z,55.41
2022-07-30T09:06:40.034Z,58.34
2022-07-30T09:07:40.067Z,55.21
2022-07-30T09:08:40.053Z,58.79
2022-07-30T09:09:40.014Z,57.39
2022-07-30T09:10:40.014Z,56.12
2022-07-30T09:11:40.997Z,59.02
2022-07-30T09:12:39.991Z,58.02
2022-07-30T09:13:40.005Z,59.88
2022-07-30T09:14:39.995Z,59.05
2022-07-30T09:15:39.968Z,60.74
2022-07-30T09:16:39.980Z,61.83
2022-07-30T09:17:39.956Z,59.57
2022-07-30T09:18:39.972Z,61.24
2022-07-30T09:19:39.941Z,62.79
2022-07-30T09:20:39.930Z,59.15
2022-07-30T09:21:39.923Z,58.70
2022-07-30T09:22:39.923Z,58.60
2022-07-30T09:23:39.934Z,57.26
2022-07-30T09:24:39.916Z,58.10
2022-07-30T09:25:39.895Z,57.90
2022-07-30T09:26:39.888Z,54.60
2022-07-30T09:27:39.881Z,59.18
2022-07-30T09:28:39.902Z,56.36
2022-07-30T09:29:39.881Z,57.77
2022-07-30T09:30:39.862Z,56.43
2022-07-30T09:31:43.537Z,56.20
2022-07-30T09:32:39.852Z,57.58
2022-07-30T09:33:40.306Z,61.17
2022-07-30T09:34:39.840Z,59.64
2022-07-30T09:35:39.824Z,59.94
2022-07-30T09:36:39.814Z,59.20
2022-07-30T09:37:39.816Z,58.77
2022-07-30T09:38:39.836Z,58.29
2022-07-30T09:39:39.797Z,56.14
2022-07-30T09:40:42.873Z,56.47
2022-07-30T09:41:40.062Z,54.50
2022-07-30T09:42:40.777Z,55.51
2022-07-30T09:43:39.799Z,57.65
2022-07-30T09:44:39.762Z,56.72
2022-07-30T09:45:39.751Z,54.95
2022-07-30T09:46:39.741Z,57.66
2022-07-30T09:47:39.742Z,57.27
2022-07-30T09:48:39.794Z,55.94
2022-07-30T09:49:39.748Z,52.09
2022-07-30T09:50:39.712Z,52.69
2022-07-30T09:51:54.765Z,52.14
2022-07-30T09:52:44.210Z,54.59
2022-07-30T09:53:40.715Z,52.42
2022-07-30T09:54:39.686Z,55.95
2022-07-30T09:55:41.469Z,52.42
2022-07-30T09:56:39.694Z,56.76
2022-07-30T09:57:40.666Z,57.25
2022-07-30T09:58:40.685Z,59.23
2022-07-30T09:59:40.648Z,59.37
2022-07-30T10:00:39.662Z,56.82
2022-07-30T10:01:49.668Z,61.16
2022-07-30T10:02:40.629Z,59.47
2022-07-30T10:03:42.041Z,55.94
2022-07-30T10:04:40.370Z,54.51
2022-07-30T10:05:39.610Z,52.56
2022-07-30T10:06:41.767Z,56.29
2022-07-30T10:07:42.699Z,59.06
2022-07-30T10:08:39.606Z,57.23
2022-07-30T10:09:39.580Z,59.69
2022-07-30T10:10:46.930Z,58.31
2022-07-30T10:11:40.564Z,57.27
2022-07-30T10:12:39.572Z,55.76
2022-07-30T10:13:42.715Z,57.80
2022-07-30T10:14:42.318Z,54.43
2022-07-30T10:15:39.536Z,56.74
2022-07-30T10:16:39.529Z,55.30
2022-07-30T10:17:39.521Z,55.22
2022-07-30T10:18:39.544Z,51.67
2022-07-30T10:19:41.788Z,54.73
2022-07-30T10:20:39.505Z,53.11
2022-07-30T10:21:39.501Z,55.13
2022-07-30T10:22:39.485Z,55.03
2022-07-30T10:23:44.238Z,57.24
2022-07-30T10:24:40.468Z,56.46
2022-07-30T10:25:49.363Z,55.41
2022-07-30T10:26:40.454Z,51.92
2022-07-30T10:27:39.455Z,52.03
2022-07-30T10:28:39.764Z,52.34
2022-07-30T10:29:42.684Z,51.20
2022-07-30T10:30:39.753Z,56.20
2022-07-30T10:31:47.134Z,49.29
2022-07-30T10:32:42.402Z,56.80
2022-07-30T10:33:40.185Z,60.72
2022-07-30T10:34:42.380Z,60.67
2022-07-30T10:35:39.401Z,59.18
2022-07-30T10:36:39.389Z,59.86
2022-07-30T10:37:39.379Z,59.23
2022-07-30T10:38:41.470Z,60.62
2022-07-30T10:39:39.363Z,62.15
2022-07-30T10:40:39.543Z,59.87
2022-07-30T10:41:42.356Z,61.27
2022-07-30T10:42:40.343Z,56.69
2022-07-30T10:43:39.328Z,59.04
2022-07-30T10:44:39.349Z,58.44
2022-07-30T10:45:43.720Z,57.04
2022-07-30T10:46:40.306Z,57.86
2022-07-30T10:47:48.517Z,58.87
2022-07-30T10:48:41.292Z,57.95
2022-07-30T10:49:41.187Z,57.11
2022-07-30T10:50:39.281Z,54.56
2022-07-30T10:51:39.275Z,58.10
2022-07-30T10:52:39.263Z,55.22
2022-07-30T10:53:39.597Z,58.55
2022-07-30T10:54:39.975Z,59.31
2022-07-30T10:55:39.538Z,54.22
2022-07-30T10:56:39.237Z,59.11
2022-07-30T10:57:41.370Z,65.06
2022-07-30T10:58:39.219Z,60.14
2022-07-30T10:59:40.224Z,56.57
2022-07-30T11:00:40.223Z,58.36
2022-07-30T11:01:39.196Z,56.09
2022-07-30T11:02:39.189Z,53.96
2022-07-30T11:03:41.080Z,54.78
2022-07-30T11:04:40.199Z,52.74
2022-07-30T11:05:45.633Z,55.28
2022-07-30T11:06:40.160Z,52.42
2022-07-30T11:07:39.157Z,51.02
2022-07-30T11:08:42.633Z,50.37
2022-07-30T11:09:40.765Z,49.12
2022-07-30T11:10:39.130Z,57.12
2022-07-30T11:12:05.821Z,58.67
2022-07-30T11:12:40.111Z,54.36
2022-07-30T11:13:39.106Z,48.63
2022-07-30T11:14:40.123Z,50.13
2022-07-30T11:15:39.089Z,51.43
2022-07-30T11:16:39.086Z,50.79
2022-07-30T11:17:39.082Z,48.91
2022-07-30T11:18:39.083Z,50.46
2022-07-30T11:19:56.432Z,50.14
2022-07-30T11:20:40.055Z,54.84
2022-07-30T11:21:39.064Z,55.23
2022-07-30T11:22:39.055Z,61.99
2022-07-30T11:23:39.351Z,57.67
2022-07-30T11:24:39.063Z,53.62
2022-07-30T11:25:52.053Z,57.26
2022-07-30T11:26:41.073Z,60.29
2022-07-30T11:27:39.030Z,59.76
2022-07-30T11:28:39.004Z,58.51
2022-07-30T11:29:50.660Z,57.49
2022-07-30T11:30:39.986Z,62.90
2022-07-30T11:31:56.350Z,55.53
2022-07-30T11:32:39.972Z,53.63
2022-07-30T11:33:39.190Z,57.22
2022-07-30T11:34:38.978Z,52.65
2022-07-30T11:35:38.948Z,58.33
2022-07-30T11:36:38.940Z,58.56
2022-07-30T11:37:39.935Z,57.33
2022-07-30T11:38:39.930Z,57.14
2022-07-30T11:39:38.948Z,58.37
2022-07-30T11:40:38.916Z,57.87
2022-07-30T11:41:38.909Z,55.92
2022-07-30T11:42:38.898Z,52.88
2022-07-30T11:43:38.887Z,47.04
2022-07-30T11:44:38.910Z,58.02
2022-07-30T11:45:38.876Z,57.74
2022-07-30T11:46:38.867Z,59.74
2022-07-30T11:47:38.863Z,56.34
2022-07-30T11:48:38.852Z,57.55
2022-07-30T11:49:38.844Z,57.20
2022-07-30T11:50:38.860Z,54.92
2022-07-30T11:51:38.833Z,51.61
2022-07-30T11:52:38.827Z,62.36
2022-07-30T11:53:38.822Z,61.64
2022-07-30T11:54:38.839Z,59.09
2022-07-30T11:55:38.822Z,63.39
2022-07-30T11:56:38.795Z,61.53
2022-07-30T11:57:38.791Z,59.36
2022-07-30T11:58:38.781Z,61.72
2022-07-30T11:59:38.771Z,62.62
2022-07-30T12:00:38.793Z,56.85
2022-07-30T12:01:38.758Z,58.90
2022-07-30T12:02:38.756Z,54.86
2022-07-30T12:03:38.748Z,62.04
2022-07-30T12:04:38.745Z,61.03
2022-07-30T12:05:38.760Z,61.32
2022-07-30T12:06:38.724Z,57.47
2022-07-30T12:07:38.710Z,58.51
2022-07-30T12:08:38.707Z,57.37
2022-07-30T12:09:38.693Z,58.39
2022-07-30T12:10:39.712Z,56.43
2022-07-30T12:11:38.681Z,55.69
2022-07-30T12:12:38.674Z,51.73
2022-07-30T12:13:45.061Z,54.48
2022-07-30T12:14:39.661Z,50.22
2022-07-30T12:15:38.676Z,54.13
2022-07-30T12:16:38.646Z,52.32
2022-07-30T12:17:38.635Z,52.39
2022-07-30T12:18:38.628Z,54.40
2022-07-30T12:19:47.732Z,55.68
2022-07-30T12:20:39.637Z,56.50
2022-07-30T12:21:38.608Z,55.26
2022-07-30T12:22:38.618Z,58.79
2022-07-30T12:23:38.597Z,58.91
2022-07-30T12:24:38.606Z,58.76
2022-07-30T12:25:38.608Z,58.66
2022-07-30T12:26:39.570Z,53.34
2022-07-30T12:27:38.565Z,59.36
2022-07-30T12:28:38.559Z,58.24
2022-07-30T12:29:38.548Z,59.38
2022-07-30T12:30:38.565Z,61.23
2022-07-30T12:31:39.952Z,60.02
2022-07-30T12:32:38.532Z,61.32
2022-07-30T12:33:42.086Z,60.47
2022-07-30T12:34:39.511Z,61.20
2022-07-30T12:35:38.530Z,62.53
2022-07-30T12:36:38.496Z,58.69
2022-07-30T12:37:38.491Z,55.54
2022-07-30T12:38:38.480Z,57.86
2022-07-30T12:39:38.473Z,60.25
2022-07-30T12:40:38.490Z,58.97
2022-07-30T12:41:38.464Z,60.17
2022-07-30T12:42:38.457Z,61.84
2022-07-30T12:43:38.446Z,64.86
2022-07-30T12:44:38.444Z,60.06
2022-07-30T12:45:52.068Z,59.40
2022-07-30T12:46:39.425Z,61.24
2022-07-30T12:47:38.420Z,60.29
2022-07-30T12:48:38.407Z,58.53
2022-07-30T12:49:48.862Z,62.48
2022-07-30T12:50:40.413Z,65.30
2022-07-30T12:51:38.385Z,62.12
2022-07-30T12:52:38.376Z,61.23